sensor_id;sensor_type;location;lat;lon;timestamp;P1;P4;P2;P0;N10;N4;N25;N1;N05;TS
78462;SPS30;67756;51.982;5.648;2023-12-20T00:01:46;3.7;3.6;3.4;3.1;;;;5.0;12.0;
78462;SPS30;67756;51.982;5.648;2023-12-20T00:04:16;3.5;3.5;3.3;3.0;;;;5.0;12.0;
78462;SPS30;67756;51.982;5.648;2023-12-20T00:06:44;4.1;4.0;3.8;3.4;;;;5.0;12.0;
78462;SPS30;67756;51.982;5.648;2023-12-20T00:09:12;3.9;3.8;3.6;3.1;;;;5.0;12.0;
78462;SPS30;67756;51.982;5.648;2023-12-20T00:11:41;3.7;3.6;3.4;3.0;;;;5.0;12.0;
78462;SPS30;67756;51.982;5.648;2023-12-20T00:14:10;3.7;3.6;3.5;3.1;;;;5.0;11.0;
78462;SPS30;67756;51.982;5.648;2023-12-20T00:16:38;3.9;3.7;3.5;3.0;;;;5.0;10.0;
78462;SPS30;67756;51.982;5.648;2023-12-20T00:19:07;3.9;3.8;3.5;3.1;;;;5.0;9.0;
78462;SPS30;67756;51.982;5.648;2023-12-20T00:21:35;4.3;4.2;3.8;3.3;;;;5.0;8.0;
78462;SPS30;67756;51.982;5.648;2023-12-20T00:24:05;3.8;3.7;3.4;3.0;;;;5.0;8.0;
78462;SPS30;67756;51.982;5.648;2023-12-20T00:26:33;4.5;4.4;4.1;3.5;;;;5.0;8.0;
78462;SPS30;67756;51.982;5.648;2023-12-20T00:29:02;3.6;3.5;3.2;2.7;;;;5.0;8.0;
78462;SPS30;67756;51.982;5.648;2023-12-20T00:31:30;4.0;3.8;3.6;3.0;;;;5.0;9.0;
78462;SPS30;67756;51.982;5.648;2023-12-20T00:33:59;3.7;3.6;3.3;2.8;;;;5.0;9.0;
78462;SPS30;67756;51.982;5.648;2023-12-20T00:36:27;4.2;4.0;3.7;3.1;;;;6.0;10.0;
78462;SPS30;67756;51.982;5.648;2023-12-20T00:38:56;4.3;4.2;3.8;3.2;;;;6.0;10.0;
78462;SPS30;67756;51.982;5.648;2023-12-20T00:41:25;4.1;3.9;3.5;2.9;;;;6.0;11.0;
78462;SPS30;67756;51.982;5.648;2023-12-20T00:43:53;3.9;3.8;3.4;2.9;;;;6.0;32.0;
78462;SPS30;67756;51.982;5.648;2023-12-20T00:46:22;3.6;3.4;3.1;2.6;;;;6.0;62.0;
78462;SPS30;67756;51.982;5.648;2023-12-20T00:48:51;3.8;3.6;3.3;2.7;;;;5.0;74.0;
78462;SPS30;67756;51.982;5.648;2023-12-20T00:51:20;4.2;4.0;3.6;2.9;;;;5.0;75.0;
78462;SPS30;67756;51.982;5.648;2023-12-20T00:53:49;3.9;3.7;3.3;2.7;;;;5.0;61.0;
78462;SPS30;67756;51.982;5.648;2023-12-20T00:56:21;4.0;3.8;3.4;2.7;;;;5.0;34.0;
78462;SPS30;67756;51.982;5.648;2023-12-20T00:58:50;3.5;3.4;3.1;2.5;;;;5.0;21.0;
78462;SPS30;67756;51.982;5.648;2023-12-20T01:01:18;4.1;3.9;3.5;2.9;;;;6.0;20.0;
78462;SPS30;67756;51.982;5.648;2023-12-20T01:03:47;3.4;3.3;3.0;2.5;;;;6.0;18.0;
78462;SPS30;67756;51.982;5.648;2023-12-20T01:06:17;4.1;3.9;3.5;2.8;;;;6.0;15.0;
78462;SPS30;67756;51.982;5.648;2023-12-20T01:08:46;4.6;4.4;4.0;3.4;;;;6.0;13.0;
78462;SPS30;67756;51.982;5.648;2023-12-20T01:11:15;3.5;3.4;3.1;2.6;;;;7.0;13.0;
78462;SPS30;67756;51.982;5.648;2023-12-20T01:13:44;4.2;4.0;3.6;3.1;;;;7.0;13.0;
78462;SPS30;67756;51.982;5.648;2023-12-20T01:16:15;3.3;3.2;2.9;2.4;;;;7.0;14.0;
78462;SPS30;67756;51.982;5.648;2023-12-20T01:18:43;4.1;3.9;3.5;2.9;;;;7.0;16.0;
78462;SPS30;67756;51.982;5.648;2023-12-20T01:21:14;4.8;4.5;4.0;3.2;;;;7.0;28.0;
78462;SPS30;67756;51.982;5.648;2023-12-20T01:23:44;3.9;3.7;3.3;2.7;;;;7.0;33.0;
78462;SPS30;67756;51.982;5.648;2023-12-20T01:26:12;3.8;3.6;3.2;2.6;;;;7.0;32.0;
78462;SPS30;67756;51.982;5.648;2023-12-20T01:28:42;4.0;3.8;3.4;2.8;;;;7.0;31.0;
78462;SPS30;67756;51.982;5.648;2023-12-20T01:31:11;3.6;3.4;3.0;2.4;;;;7.0;29.0;
78462;SPS30;67756;51.982;5.648;2023-12-20T01:33:40;3.3;3.1;2.7;2.1;;;;7.0;28.0;
78462;SPS30;67756;51.982;5.648;2023-12-20T01:36:08;3.3;3.1;2.7;2.1;;;;7.0;27.0;
78462;SPS30;67756;51.982;5.648;2023-12-20T01:38:37;4.0;3.7;3.2;2.5;;;;7.0;24.0;
78462;SPS30;67756;51.982;5.648;2023-12-20T01:41:06;4.2;3.9;3.4;2.6;;;;7.0;22.0;
78462;SPS30;67756;51.982;5.648;2023-12-20T01:43:34;3.9;3.7;3.2;2.5;;;;7.0;21.0;
78462;SPS30;67756;51.982;5.648;2023-12-20T01:46:05;3.4;3.2;2.8;2.2;;;;8.0;22.0;
78462;SPS30;67756;51.982;5.648;2023-12-20T01:48:34;4.2;4.0;3.4;2.6;;;;8.0;22.0;
78462;SPS30;67756;51.982;5.648;2023-12-20T01:51:05;3.9;3.7;3.2;2.5;;;;8.0;20.0;
78462;SPS30;67756;51.982;5.648;2023-12-20T01:53:34;3.6;3.4;2.9;2.2;;;;8.0;16.0;
78462;SPS30;67756;51.982;5.648;2023-12-20T01:56:03;3.3;3.1;2.7;2.1;;;;9.0;16.0;
78462;SPS30;67756;51.982;5.648;2023-12-20T01:58:32;3.4;3.2;2.8;2.2;;;;9.0;16.0;
78462;SPS30;67756;51.982;5.648;2023-12-20T02:01:02;3.2;3.0;2.6;2.1;;;;9.0;16.0;
78462;SPS30;67756;51.982;5.648;2023-12-20T02:03:30;3.8;3.5;3.0;2.3;;;;9.0;15.0;
78462;SPS30;67756;51.982;5.648;2023-12-20T02:06:00;3.8;3.6;3.1;2.3;;;;10.0;15.0;
78462;SPS30;67756;51.982;5.648;2023-12-20T02:08:31;3.6;3.4;2.9;2.1;;;;10.0;17.0;
78462;SPS30;67756;51.982;5.648;2023-12-20T02:11:00;4.3;4.0;3.5;2.7;;;;10.0;21.0;
78462;SPS30;67756;51.982;5.648;2023-12-20T02:13:29;4.4;4.1;3.6;2.7;;;;10.0;30.0;
78462;SPS30;67756;51.982;5.648;2023-12-20T02:15:58;5.2;4.8;4.1;3.0;;;;10.0;39.0;
78462;SPS30;67756;51.982;5.648;2023-12-20T02:18:30;3.8;3.6;3.1;2.4;;;;10.0;46.0;
78462;SPS30;67756;51.982;5.648;2023-12-20T02:20:58;4.5;4.2;3.6;2.8;;;;9.0;44.0;
78462;SPS30;67756;51.982;5.648;2023-12-20T02:23:27;4.1;3.8;3.2;2.4;;;;9.0;42.0;
78462;SPS30;67756;51.982;5.648;2023-12-20T02:25:56;5.8;5.4;4.5;3.3;;;;9.0;48.0;
78462;SPS30;67756;51.982;5.648;2023-12-20T02:28:24;3.9;3.7;3.1;2.3;;;;9.0;46.0;
78462;SPS30;67756;51.982;5.648;2023-12-20T02:30:53;5.1;4.8;4.0;3.0;;;;9.0;44.0;
78462;SPS30;67756;51.982;5.648;2023-12-20T02:33:21;4.9;4.5;3.8;2.7;;;;9.0;36.0;
78462;SPS30;67756;51.982;5.648;2023-12-20T02:35:50;4.2;3.8;3.2;2.3;;;;9.0;20.0;
78462;SPS30;67756;51.982;5.648;2023-12-20T02:38:18;4.8;4.4;3.7;2.6;;;;9.0;17.0;
78462;SPS30;67756;51.982;5.648;2023-12-20T02:40:48;4.3;4.0;3.3;2.3;;;;9.0;17.0;
78462;SPS30;67756;51.982;5.648;2023-12-20T02:43:16;5.2;4.8;3.9;2.7;;;;9.0;16.0;
78462;SPS30;67756;51.982;5.648;2023-12-20T02:45:44;4.9;4.6;3.8;2.7;;;;9.0;14.0;
78462;SPS30;67756;51.982;5.648;2023-12-20T02:48:13;4.8;4.5;3.7;2.7;;;;9.0;15.0;
78462;SPS30;67756;51.982;5.648;2023-12-20T02:50:42;5.0;4.6;3.9;2.8;;;;9.0;14.0;
78462;SPS30;67756;51.982;5.648;2023-12-20T02:53:10;4.2;3.9;3.2;2.3;;;;9.0;14.0;
78462;SPS30;67756;51.982;5.648;2023-12-20T02:55:39;3.8;3.5;3.0;2.2;;;;9.0;15.0;
78462;SPS30;67756;51.982;5.648;2023-12-20T02:58:08;4.1;3.8;3.3;2.5;;;;9.0;18.0;
78462;SPS30;67756;51.982;5.648;2023-12-20T03:00:36;5.0;4.7;4.0;3.0;;;;9.0;19.0;
78462;SPS30;67756;51.982;5.648;2023-12-20T03:03:05;5.3;5.0;4.3;3.3;;;;10.0;19.0;
78462;SPS30;67756;51.982;5.648;2023-12-20T03:05:34;5.6;5.2;4.4;3.3;;;;10.0;19.0;
78462;SPS30;67756;51.982;5.648;2023-12-20T03:08:05;5.7;5.2;4.3;3.0;;;;10.0;19.0;
78462;SPS30;67756;51.982;5.648;2023-12-20T03:10:33;5.5;5.1;4.3;3.1;;;;10.0;19.0;
78462;SPS30;67756;51.982;5.648;2023-12-20T03:13:02;4.8;4.4;3.7;2.8;;;;10.0;19.0;
78462;SPS30;67756;51.982;5.648;2023-12-20T03:15:33;5.5;5.1;4.3;3.1;;;;11.0;17.0;
78462;SPS30;67756;51.982;5.648;2023-12-20T03:18:02;5.5;5.1;4.3;3.1;;;;11.0;13.0;
78462;SPS30;67756;51.982;5.648;2023-12-20T03:20:31;4.6;4.3;3.6;2.6;;;;11.0;12.0;
78462;SPS30;67756;51.982;5.648;2023-12-20T03:23:00;5.9;5.5;4.6;3.3;;;;12.0;12.0;
78462;SPS30;67756;51.982;5.648;2023-12-20T03:25:28;4.7;4.5;3.8;3.0;;;;12.0;13.0;
78462;SPS30;67756;51.982;5.648;2023-12-20T03:27:57;5.4;5.0;4.2;3.0;;;;12.0;14.0;
78462;SPS30;67756;51.982;5.648;2023-12-20T03:30:26;5.0;4.6;3.8;2.7;;;;12.0;15.0;
78462;SPS30;67756;51.982;5.648;2023-12-20T03:32:54;5.0;4.6;3.8;2.7;;;;12.0;15.0;
78462;SPS30;67756;51.982;5.648;2023-12-20T03:35:23;5.6;5.2;4.2;3.0;;;;12.0;17.0;
78462;SPS30;67756;51.982;5.648;2023-12-20T03:37:51;5.0;4.6;3.9;2.9;;;;12.0;17.0;
78462;SPS30;67756;51.982;5.648;2023-12-20T03:40:20;5.1;4.7;3.9;2.8;;;;12.0;18.0;
78462;SPS30;67756;51.982;5.648;2023-12-20T03:42:49;5.2;4.9;4.1;3.1;;;;12.0;18.0;
78462;SPS30;67756;51.982;5.648;2023-12-20T03:45:17;5.5;5.1;4.3;3.1;;;;12.0;18.0;
78462;SPS30;67756;51.982;5.648;2023-12-20T03:47:46;5.1;4.7;4.0;2.9;;;;11.0;19.0;
78462;SPS30;67756;51.982;5.648;2023-12-20T03:50:15;4.5;4.2;3.6;2.6;;;;11.0;22.0;
78462;SPS30;67756;51.982;5.648;2023-12-20T03:52:44;5.2;4.9;4.2;3.2;;;;11.0;22.0;
78462;SPS30;67756;51.982;5.648;2023-12-20T03:55:12;4.6;4.3;3.7;2.9;;;;11.0;22.0;
78462;SPS30;67756;51.982;5.648;2023-12-20T03:57:41;4.6;4.3;3.7;2.8;;;;11.0;22.0;
78462;SPS30;67756;51.982;5.648;2023-12-20T04:00:10;5.2;4.8;4.0;2.9;;;;10.0;22.0;
78462;SPS30;67756;51.982;5.648;2023-12-20T04:02:42;6.1;5.6;4.7;3.3;;;;10.0;21.0;
78462;SPS30;67756;51.982;5.648;2023-12-20T04:05:11;6.3;5.8;4.7;3.3;;;;10.0;20.0;
78462;SPS30;67756;51.982;5.648;2023-12-20T04:07:40;6.5;5.9;4.7;3.2;;;;10.0;19.0;
78462;SPS30;67756;51.982;5.648;2023-12-20T04:10:08;5.8;5.3;4.3;3.0;;;;10.0;17.0;
78462;SPS30;67756;51.982;5.648;2023-12-20T04:12:37;5.4;5.0;4.0;2.7;;;;10.0;16.0;
78462;SPS30;67756;51.982;5.648;2023-12-20T04:15:08;5.1;4.7;3.8;2.6;;;;10.0;14.0;
78462;SPS30;67756;51.982;5.648;2023-12-20T04:17:38;6.3;5.7;4.6;3.1;;;;10.0;14.0;
78462;SPS30;67756;51.982;5.648;2023-12-20T04:20:07;6.6;6.0;4.9;3.3;;;;10.0;13.0;
78462;SPS30;67756;51.982;5.648;2023-12-20T04:22:36;5.7;5.2;4.3;3.0;;;;10.0;13.0;
78462;SPS30;67756;51.982;5.648;2023-12-20T04:25:05;5.6;5.1;4.1;2.7;;;;10.0;14.0;
78462;SPS30;67756;51.982;5.648;2023-12-20T04:27:34;5.9;5.4;4.2;2.7;;;;10.0;16.0;
78462;SPS30;67756;51.982;5.648;2023-12-20T04:30:02;6.6;6.0;4.8;3.1;;;;10.0;20.0;
78462;SPS30;67756;51.982;5.648;2023-12-20T04:32:31;6.7;6.1;4.8;3.0;;;;10.0;27.0;
78462;SPS30;67756;51.982;5.648;2023-12-20T04:35:00;6.9;6.3;5.0;3.2;;;;9.0;38.0;
78462;SPS30;67756;51.982;5.648;2023-12-20T04:37:28;5.7;5.2;4.1;2.5;;;;9.0;36.0;
78462;SPS30;67756;51.982;5.648;2023-12-20T04:39:57;6.3;5.7;4.5;2.8;;;;9.0;33.0;
78462;SPS30;67756;51.982;5.648;2023-12-20T04:42:25;7.2;6.5;5.1;3.2;;;;9.0;33.0;
78462;SPS30;67756;51.982;5.648;2023-12-20T04:44:54;6.6;6.0;4.8;3.1;;;;9.0;34.0;
78462;SPS30;67756;51.982;5.648;2023-12-20T04:47:23;6.7;6.1;4.8;3.1;;;;9.0;33.0;
78462;SPS30;67756;51.982;5.648;2023-12-20T04:49:51;5.4;5.0;4.0;2.7;;;;9.0;29.0;
78462;SPS30;67756;51.982;5.648;2023-12-20T04:52:20;6.7;6.1;4.9;3.2;;;;9.0;20.0;
78462;SPS30;67756;51.982;5.648;2023-12-20T04:54:48;6.1;5.5;4.4;2.8;;;;9.0;16.0;
78462;SPS30;67756;51.982;5.648;2023-12-20T04:57:17;6.3;5.7;4.5;2.9;;;;9.0;13.0;
78462;SPS30;67756;51.982;5.648;2023-12-20T04:59:46;6.7;6.1;4.8;3.0;;;;9.0;11.0;
78462;SPS30;67756;51.982;5.648;2023-12-20T05:02:14;5.7;5.2;4.1;2.6;;;;9.0;11.0;
78462;SPS30;67756;51.982;5.648;2023-12-20T05:04:43;7.5;6.8;5.4;3.4;;;;9.0;12.0;
78462;SPS30;67756;51.982;5.648;2023-12-20T05:07:12;6.5;5.9;4.7;3.1;;;;9.0;13.0;
78462;SPS30;67756;51.982;5.648;2023-12-20T05:09:40;5.7;5.2;4.2;2.7;;;;8.0;14.0;
78462;SPS30;67756;51.982;5.648;2023-12-20T05:12:09;5.9;5.4;4.3;2.8;;;;8.0;14.0;
78462;SPS30;67756;51.982;5.648;2023-12-20T05:14:38;7.3;6.6;5.1;3.1;;;;8.0;14.0;
78462;SPS30;67756;51.982;5.648;2023-12-20T05:17:06;7.1;6.4;4.9;3.0;;;;8.0;13.0;
78462;SPS30;67756;51.982;5.648;2023-12-20T05:19:35;7.9;7.1;5.5;3.3;;;;8.0;16.0;
78462;SPS30;67756;51.982;5.648;2023-12-20T05:22:03;6.5;5.9;4.6;2.8;;;;8.0;19.0;
78462;SPS30;67756;51.982;5.648;2023-12-20T05:24:32;8.1;7.3;5.7;3.5;;;;8.0;21.0;
78462;SPS30;67756;51.982;5.648;2023-12-20T05:27:03;6.9;6.2;4.8;3.0;;;;8.0;25.0;
78462;SPS30;67756;51.982;5.648;2023-12-20T05:29:32;7.4;6.6;5.1;3.1;;;;8.0;34.0;
78462;SPS30;67756;51.982;5.648;2023-12-20T05:32:00;6.9;6.3;4.8;3.0;;;;8.0;37.0;
78462;SPS30;67756;51.982;5.648;2023-12-20T05:34:30;7.4;6.7;5.2;3.2;;;;7.0;36.0;
78462;SPS30;67756;51.982;5.648;2023-12-20T05:36:59;8.3;7.5;5.8;3.5;;;;7.0;37.0;
78462;SPS30;67756;51.982;5.648;2023-12-20T05:39:28;6.5;5.9;4.6;2.9;;;;7.0;39.0;
78462;SPS30;67756;51.982;5.648;2023-12-20T05:41:57;6.7;6.0;4.7;2.9;;;;7.0;49.0;
78462;SPS30;67756;51.982;5.648;2023-12-20T05:44:26;7.1;6.4;5.0;3.1;;;;7.0;48.0;
78462;SPS30;67756;51.982;5.648;2023-12-20T05:46:56;7.5;6.8;5.2;3.1;;;;7.0;44.0;
78462;SPS30;67756;51.982;5.648;2023-12-20T05:49:25;7.3;6.6;5.1;3.1;;;;7.0;42.0;
78462;SPS30;67756;51.982;5.648;2023-12-20T05:51:53;6.8;6.1;4.7;2.7;;;;7.0;40.0;
78462;SPS30;67756;51.982;5.648;2023-12-20T05:54:22;6.6;6.0;4.6;2.8;;;;6.0;38.0;
78462;SPS30;67756;51.982;5.648;2023-12-20T05:56:51;7.4;6.7;5.2;3.2;;;;6.0;37.0;
78462;SPS30;67756;51.982;5.648;2023-12-20T05:59:19;6.8;6.2;4.8;3.0;;;;6.0;37.0;
78462;SPS30;67756;51.982;5.648;2023-12-20T06:01:48;6.3;5.7;4.5;2.9;;;;6.0;37.0;
78462;SPS30;67756;51.982;5.648;2023-12-20T06:04:17;7.0;6.4;5.0;3.1;;;;5.0;39.0;
78462;SPS30;67756;51.982;5.648;2023-12-20T06:06:45;7.5;6.8;5.2;3.1;;;;5.0;36.0;
78462;SPS30;67756;51.982;5.648;2023-12-20T06:09:14;6.9;6.2;4.8;2.9;;;;5.0;31.0;
78462;SPS30;67756;51.982;5.648;2023-12-20T06:11:43;4.6;4.2;3.4;2.3;;;;5.0;30.0;
78462;SPS30;67756;51.982;5.648;2023-12-20T06:14:12;6.2;5.6;4.5;3.0;;;;5.0;31.0;
78462;SPS30;67756;51.982;5.648;2023-12-20T06:16:40;6.6;6.0;4.8;3.1;;;;5.0;34.0;
78462;SPS30;67756;51.982;5.648;2023-12-20T06:19:09;6.1;5.6;4.4;2.9;;;;5.0;34.0;
78462;SPS30;67756;51.982;5.648;2023-12-20T06:21:37;7.2;6.5;5.1;3.2;;;;5.0;35.0;
78462;SPS30;67756;51.982;5.648;2023-12-20T06:24:06;6.7;6.1;4.9;3.2;;;;4.0;37.0;
78462;SPS30;67756;51.982;5.648;2023-12-20T06:26:35;6.6;6.1;4.8;3.1;;;;4.0;38.0;
78462;SPS30;67756;51.982;5.648;2023-12-20T06:29:04;6.4;5.8;4.6;3.0;;;;4.0;41.0;
78462;SPS30;67756;51.982;5.648;2023-12-20T06:31:32;6.8;6.2;4.9;3.1;;;;4.0;54.0;
78462;SPS30;67756;51.982;5.648;2023-12-20T06:34:01;6.5;5.9;4.7;3.1;;;;4.0;59.0;
78462;SPS30;67756;51.982;5.648;2023-12-20T06:36:29;4.9;4.5;3.6;2.4;;;;4.0;56.0;
78462;SPS30;67756;51.982;5.648;2023-12-20T06:39:00;6.2;5.6;4.5;3.0;;;;4.0;56.0;
78462;SPS30;67756;51.982;5.648;2023-12-20T06:41:30;6.4;5.8;4.6;2.9;;;;4.0;56.0;
78462;SPS30;67756;51.982;5.648;2023-12-20T06:43:59;6.3;5.8;4.6;3.1;;;;4.0;55.0;
78462;SPS30;67756;51.982;5.648;2023-12-20T06:46:28;6.5;5.9;4.7;3.0;;;;4.0;57.0;
78462;SPS30;67756;51.982;5.648;2023-12-20T06:48:56;6.9;6.3;4.9;3.0;;;;4.0;57.0;
78462;SPS30;67756;51.982;5.648;2023-12-20T06:51:25;7.4;6.8;5.3;3.4;;;;4.0;57.0;
78462;SPS30;67756;51.982;5.648;2023-12-20T06:53:53;6.7;6.1;4.9;3.2;;;;4.0;57.0;
78462;SPS30;67756;51.982;5.648;2023-12-20T06:56:22;6.9;6.3;4.9;3.1;;;;4.0;62.0;
78462;SPS30;67756;51.982;5.648;2023-12-20T06:58:51;6.6;6.0;4.7;3.0;;;;3.0;83.0;
78462;SPS30;67756;51.982;5.648;2023-12-20T07:01:19;6.8;6.2;4.8;3.1;;;;3.0;96.0;
78462;SPS30;67756;51.982;5.648;2023-12-20T07:03:48;7.2;6.5;5.1;3.2;;;;3.0;90.0;
78462;SPS30;67756;51.982;5.648;2023-12-20T07:06:17;7.1;6.5;5.2;3.4;;;;3.0;91.0;
78462;SPS30;67756;51.982;5.648;2023-12-20T07:08:46;6.2;5.7;4.5;2.9;;;;3.0;89.0;
78462;SPS30;67756;51.982;5.648;2023-12-20T07:11:15;7.5;6.9;5.5;3.7;;;;3.0;87.0;
78462;SPS30;67756;51.982;5.648;2023-12-20T07:13:45;6.2;5.7;4.6;3.1;;;;3.0;92.0;
78462;SPS30;67756;51.982;5.648;2023-12-20T07:16:15;7.3;6.7;5.3;3.5;;;;3.0;102.0;
78462;SPS30;67756;51.982;5.648;2023-12-20T07:18:44;5.8;5.3;4.3;2.9;;;;3.0;101.0;
78462;SPS30;67756;51.982;5.648;2023-12-20T07:21:13;5.3;4.9;3.9;2.7;;;;3.0;107.0;
78462;SPS30;67756;51.982;5.648;2023-12-20T07:23:42;6.3;5.9;4.9;3.5;;;;3.0;130.0;
78462;SPS30;67756;51.982;5.648;2023-12-20T07:26:10;7.5;6.9;5.6;3.9;;;;3.0;133.0;
78462;SPS30;67756;51.982;5.648;2023-12-20T07:28:39;7.4;6.8;5.4;3.6;;;;3.0;137.0;
78462;SPS30;67756;51.982;5.648;2023-12-20T07:31:10;6.8;6.2;4.9;3.2;;;;3.0;130.0;
78462;SPS30;67756;51.982;5.648;2023-12-20T07:33:38;6.3;5.8;4.7;3.2;;;;3.0;129.0;
78462;SPS30;67756;51.982;5.648;2023-12-20T07:36:07;6.6;6.0;4.8;3.3;;;;3.0;126.0;
78462;SPS30;67756;51.982;5.648;2023-12-20T07:38:37;6.3;5.7;4.6;3.1;;;;3.0;110.0;
78462;SPS30;67756;51.982;5.648;2023-12-20T07:41:08;6.1;5.6;4.5;2.9;;;;3.0;103.0;
78462;SPS30;67756;51.982;5.648;2023-12-20T07:43:37;6.7;6.1;4.9;3.2;;;;3.0;109.0;
78462;SPS30;67756;51.982;5.648;2023-12-20T07:46:07;6.9;6.3;5.0;3.3;;;;3.0;110.0;
78462;SPS30;67756;51.982;5.648;2023-12-20T07:48:37;7.1;6.5;5.2;3.5;;;;2.0;108.0;
78462;SPS30;67756;51.982;5.648;2023-12-20T07:51:07;6.9;6.4;5.2;3.5;;;;2.0;109.0;
78462;SPS30;67756;51.982;5.648;2023-12-20T07:53:36;5.8;5.3;4.3;2.9;;;;2.0;105.0;
78462;SPS30;67756;51.982;5.648;2023-12-20T07:56:14;6.1;5.6;4.5;3.1;;;;2.0;128.0;
78462;SPS30;67756;51.982;5.648;2023-12-20T07:58:43;6.9;6.3;5.1;3.4;;;;2.0;116.0;
78462;SPS30;67756;51.982;5.648;2023-12-20T08:01:15;5.9;5.4;4.4;3.1;;;;2.0;109.0;
78462;SPS30;67756;51.982;5.648;2023-12-20T08:03:45;6.3;5.8;4.7;3.2;;;;2.0;110.0;
78462;SPS30;67756;51.982;5.648;2023-12-20T08:06:14;6.4;5.8;4.7;3.2;;;;2.0;108.0;
78462;SPS30;67756;51.982;5.648;2023-12-20T08:08:43;6.2;5.7;4.5;2.9;;;;2.0;109.0;
78462;SPS30;67756;51.982;5.648;2023-12-20T08:11:12;6.6;5.9;4.7;2.9;;;;2.0;106.0;
78462;SPS30;67756;51.982;5.648;2023-12-20T08:13:40;7.5;6.8;5.3;3.3;;;;2.0;97.0;
78462;SPS30;67756;51.982;5.648;2023-12-20T08:16:09;7.1;6.4;4.9;3.0;;;;2.0;87.0;
78462;SPS30;67756;51.982;5.648;2023-12-20T08:18:39;6.9;6.2;4.8;2.9;;;;2.0;84.0;
78462;SPS30;67756;51.982;5.648;2023-12-20T08:21:08;6.2;5.6;4.5;3.0;;;;2.0;81.0;
78462;SPS30;67756;51.982;5.648;2023-12-20T08:23:37;6.4;5.8;4.6;3.0;;;;2.0;73.0;
78462;SPS30;67756;51.982;5.648;2023-12-20T08:26:06;7.3;6.7;5.3;3.6;;;;2.0;75.0;
78462;SPS30;67756;51.982;5.648;2023-12-20T08:28:36;5.1;4.7;3.8;2.5;;;;2.0;75.0;
78462;SPS30;67756;51.982;5.648;2023-12-20T08:31:05;5.5;5.0;4.0;2.7;;;;2.0;75.0;
78462;SPS30;67756;51.982;5.648;2023-12-20T08:33:34;7.0;6.4;5.1;3.3;;;;2.0;136.0;
78462;SPS30;67756;51.982;5.648;2023-12-20T08:36:03;6.1;5.5;4.4;2.8;;;;2.0;116.0;
78462;SPS30;67756;51.982;5.648;2023-12-20T08:38:32;6.7;6.0;4.8;3.0;;;;2.0;110.0;
78462;SPS30;67756;51.982;5.648;2023-12-20T08:41:00;6.9;6.3;4.9;3.0;;;;2.0;109.0;
78462;SPS30;67756;51.982;5.648;2023-12-20T08:43:31;7.1;6.4;5.0;3.0;;;;2.0;102.0;
78462;SPS30;67756;51.982;5.648;2023-12-20T08:46:00;7.3;6.6;5.2;3.3;;;;2.0;104.0;
78462;SPS30;67756;51.982;5.648;2023-12-20T08:48:29;7.1;6.4;5.1;3.3;;;;2.0;102.0;
78462;SPS30;67756;51.982;5.648;2023-12-20T08:50:58;7.2;6.6;5.4;3.6;;;;2.0;110.0;
78462;SPS30;67756;51.982;5.648;2023-12-20T08:53:26;6.3;5.8;4.7;3.1;;;;2.0;109.0;
78462;SPS30;67756;51.982;5.648;2023-12-20T08:55:55;6.9;6.3;5.1;3.4;;;;2.0;108.0;
78462;SPS30;67756;51.982;5.648;2023-12-20T08:58:27;6.9;6.3;5.0;3.2;;;;2.0;105.0;
78462;SPS30;67756;51.982;5.648;2023-12-20T09:00:56;6.1;5.6;4.5;3.0;;;;2.0;102.0;
78462;SPS30;67756;51.982;5.648;2023-12-20T09:03:25;7.0;6.3;4.9;3.1;;;;2.0;97.0;
78462;SPS30;67756;51.982;5.648;2023-12-20T09:05:53;7.1;6.4;5.0;3.1;;;;2.0;85.0;
78462;SPS30;67756;51.982;5.648;2023-12-20T09:08:22;7.3;6.6;5.1;3.1;;;;2.0;76.0;
78462;SPS30;67756;51.982;5.648;2023-12-20T09:10:52;6.1;5.5;4.3;2.6;;;;2.0;80.0;
78462;SPS30;67756;51.982;5.648;2023-12-20T09:13:20;7.0;6.3;4.9;3.1;;;;2.0;88.0;
78462;SPS30;67756;51.982;5.648;2023-12-20T09:15:54;7.0;6.3;4.9;3.0;;;;2.0;101.0;
78462;SPS30;67756;51.982;5.648;2023-12-20T09:18:23;6.5;5.9;4.7;3.1;;;;2.0;101.0;
78462;SPS30;67756;51.982;5.648;2023-12-20T09:20:52;6.6;6.0;4.6;2.8;;;;2.0;105.0;
78462;SPS30;67756;51.982;5.648;2023-12-20T09:23:21;8.8;7.9;6.0;3.5;;;;2.0;103.0;
78462;SPS30;67756;51.982;5.648;2023-12-20T09:25:50;8.1;7.3;5.7;3.6;;;;2.0;101.0;
78462;SPS30;67756;51.982;5.648;2023-12-20T09:28:18;6.3;5.8;4.5;2.9;;;;2.0;100.0;
78462;SPS30;67756;51.982;5.648;2023-12-20T09:30:47;6.4;5.8;4.5;2.9;;;;2.0;104.0;
78462;SPS30;67756;51.982;5.648;2023-12-20T09:33:17;6.5;5.9;4.7;3.1;;;;2.0;113.0;
78462;SPS30;67756;51.982;5.648;2023-12-20T09:35:46;7.1;6.5;5.2;3.4;;;;2.0;108.0;
78462;SPS30;67756;51.982;5.648;2023-12-20T09:38:15;5.9;5.4;4.4;3.0;;;;2.0;92.0;
78462;SPS30;67756;51.982;5.648;2023-12-20T09:40:44;6.9;6.3;5.0;3.2;;;;2.0;89.0;
78462;SPS30;67756;51.982;5.648;2023-12-20T09:43:13;6.2;5.7;4.4;2.8;;;;2.0;89.0;
78462;SPS30;67756;51.982;5.648;2023-12-20T09:45:43;6.8;6.2;4.8;3.0;;;;2.0;90.0;
78462;SPS30;67756;51.982;5.648;2023-12-20T09:48:15;8.4;7.6;6.0;3.8;;;;2.0;93.0;
78462;SPS30;67756;51.982;5.648;2023-12-20T09:50:47;7.2;6.6;5.3;3.4;;;;2.0;103.0;
78462;SPS30;67756;51.982;5.648;2023-12-20T09:53:16;5.9;5.4;4.3;2.7;;;;2.0;104.0;
78462;SPS30;67756;51.982;5.648;2023-12-20T09:55:49;6.2;5.6;4.4;2.8;;;;2.0;96.0;
78462;SPS30;67756;51.982;5.648;2023-12-20T09:58:20;5.8;5.3;4.2;2.7;;;;2.0;87.0;
78462;SPS30;67756;51.982;5.648;2023-12-20T10:00:48;6.5;5.9;4.6;2.8;;;;2.0;88.0;
78462;SPS30;67756;51.982;5.648;2023-12-20T10:03:17;8.2;7.4;5.7;3.5;;;;2.0;93.0;
78462;SPS30;67756;51.982;5.648;2023-12-20T10:05:55;8.7;7.9;6.1;3.8;;;;2.0;132.0;
78462;SPS30;67756;51.982;5.648;2023-12-20T10:08:26;7.4;6.7;5.1;3.1;;;;2.0;117.0;
78462;SPS30;67756;51.982;5.648;2023-12-20T10:10:56;7.7;7.0;5.4;3.3;;;;2.0;126.0;
78462;SPS30;67756;51.982;5.648;2023-12-20T10:13:28;6.5;5.9;4.7;3.0;;;;2.0;121.0;
78462;SPS30;67756;51.982;5.648;2023-12-20T10:15:58;6.3;5.8;4.6;3.0;;;;2.0;120.0;
78462;SPS30;67756;51.982;5.648;2023-12-20T10:18:30;6.2;5.7;4.5;3.0;;;;2.0;112.0;
78462;SPS30;67756;51.982;5.648;2023-12-20T10:20:59;5.8;5.3;4.2;2.7;;;;2.0;91.0;
78462;SPS30;67756;51.982;5.648;2023-12-20T10:23:29;6.8;6.2;4.8;3.0;;;;2.0;97.0;
78462;SPS30;67756;51.982;5.648;2023-12-20T10:25:59;5.9;5.4;4.2;2.7;;;;2.0;131.0;
78462;SPS30;67756;51.982;5.648;2023-12-20T10:28:28;5.5;5.0;4.0;2.7;;;;2.0;127.0;
78462;SPS30;67756;51.982;5.648;2023-12-20T10:31:02;6.4;5.9;4.7;3.1;;;;2.0;124.0;
78462;SPS30;67756;51.982;5.648;2023-12-20T10:33:31;6.8;6.2;5.0;3.3;;;;2.0;125.0;
78462;SPS30;67756;51.982;5.648;2023-12-20T10:36:00;6.1;5.6;4.5;3.0;;;;2.0;136.0;
78462;SPS30;67756;51.982;5.648;2023-12-20T10:38:29;5.8;5.3;4.2;2.8;;;;1.0;135.0;
78462;SPS30;67756;51.982;5.648;2023-12-20T10:41:00;5.4;4.9;3.9;2.5;;;;1.0;133.0;
78462;SPS30;67756;51.982;5.648;2023-12-20T10:43:32;7.6;6.9;5.3;3.2;;;;1.0;135.0;
78462;SPS30;67756;51.982;5.648;2023-12-20T10:46:01;6.3;5.7;4.5;2.8;;;;1.0;97.0;
78462;SPS30;67756;51.982;5.648;2023-12-20T10:48:32;5.4;4.9;3.8;2.3;;;;1.0;90.0;
78462;SPS30;67756;51.982;5.648;2023-12-20T10:51:02;6.0;5.5;4.4;2.9;;;;1.0;74.0;
78462;SPS30;67756;51.982;5.648;2023-12-20T10:53:33;4.8;4.4;3.5;2.3;;;;1.0;57.0;
78462;SPS30;67756;51.982;5.648;2023-12-20T10:56:06;6.9;6.2;4.9;3.2;;;;1.0;56.0;
78462;SPS30;67756;51.982;5.648;2023-12-20T10:58:39;6.7;6.1;4.7;3.0;;;;1.0;64.0;
78462;SPS30;67756;51.982;5.648;2023-12-20T11:01:14;5.6;5.1;4.0;2.5;;;;1.0;56.0;
78462;SPS30;67756;51.982;5.648;2023-12-20T11:03:48;6.2;5.6;4.4;2.8;;;;1.0;48.0;
78462;SPS30;67756;51.982;5.648;2023-12-20T11:06:52;5.7;5.2;4.0;2.6;;;;1.0;51.0;
78462;SPS30;67756;51.982;5.648;2023-12-20T11:09:33;6.0;5.4;4.1;2.5;;;;1.0;50.0;
78462;SPS30;67756;51.982;5.648;2023-12-20T11:12:19;6.9;6.2;4.7;2.8;;;;1.0;49.0;
78462;SPS30;67756;51.982;5.648;2023-12-20T11:14:58;6.1;5.5;4.1;2.4;;;;1.0;45.0;
78462;SPS30;67756;51.982;5.648;2023-12-20T11:17:30;7.2;6.4;4.9;2.8;;;;1.0;44.0;
78462;SPS30;67756;51.982;5.648;2023-12-20T11:20:07;5.5;5.0;3.8;2.3;;;;1.0;44.0;
78462;SPS30;67756;51.982;5.648;2023-12-20T11:22:38;6.6;6.0;4.7;3.0;;;;1.0;46.0;
78462;SPS30;67756;51.982;5.648;2023-12-20T11:25:13;6.3;5.7;4.6;3.0;;;;1.0;45.0;
78462;SPS30;67756;51.982;5.648;2023-12-20T11:27:42;5.9;5.4;4.3;2.7;;;;1.0;47.0;
78462;SPS30;67756;51.982;5.648;2023-12-20T11:30:12;5.7;5.2;4.1;2.6;;;;1.0;47.0;
78462;SPS30;67756;51.982;5.648;2023-12-20T11:32:44;5.5;5.0;4.0;2.6;;;;1.0;48.0;
78462;SPS30;67756;51.982;5.648;2023-12-20T11:35:20;5.6;5.1;3.9;2.4;;;;1.0;51.0;
78462;SPS30;67756;51.982;5.648;2023-12-20T11:37:50;6.3;5.7;4.4;2.7;;;;1.0;51.0;
78462;SPS30;67756;51.982;5.648;2023-12-20T11:40:21;7.3;6.5;5.0;2.9;;;;1.0;45.0;
78462;SPS30;67756;51.982;5.648;2023-12-20T11:42:51;5.7;5.2;4.0;2.5;;;;1.0;35.0;
78462;SPS30;67756;51.982;5.648;2023-12-20T11:45:22;5.3;4.8;3.7;2.3;;;;1.0;34.0;
78462;SPS30;67756;51.982;5.648;2023-12-20T11:47:53;6.5;5.9;4.5;2.7;;;;1.0;33.0;
78462;SPS30;67756;51.982;5.648;2023-12-20T11:50:22;6.4;5.8;4.4;2.7;;;;1.0;32.0;
78462;SPS30;67756;51.982;5.648;2023-12-20T11:52:53;5.4;4.9;3.7;2.3;;;;1.0;30.0;
78462;SPS30;67756;51.982;5.648;2023-12-20T11:55:22;5.0;4.5;3.5;2.2;;;;1.0;28.0;
78462;SPS30;67756;51.982;5.648;2023-12-20T11:57:51;5.5;5.0;4.0;2.6;;;;1.0;23.0;
78462;SPS30;67756;51.982;5.648;2023-12-20T12:00:20;4.6;4.2;3.2;2.0;;;;1.0;20.0;
78462;SPS30;67756;51.982;5.648;2023-12-20T12:03:01;5.3;4.8;3.7;2.3;;;;1.0;19.0;
78462;SPS30;67756;51.982;5.648;2023-12-20T12:05:32;5.0;4.5;3.6;2.2;;;;1.0;20.0;
78462;SPS30;67756;51.982;5.648;2023-12-20T12:08:02;4.7;4.2;3.3;2.0;;;;1.0;20.0;
78462;SPS30;67756;51.982;5.648;2023-12-20T12:10:32;5.7;5.1;4.0;2.5;;;;1.0;22.0;
78462;SPS30;67756;51.982;5.648;2023-12-20T12:13:00;5.5;5.0;3.9;2.4;;;;1.0;30.0;
78462;SPS30;67756;51.982;5.648;2023-12-20T12:15:29;5.6;5.1;3.9;2.3;;;;1.0;35.0;
78462;SPS30;67756;51.982;5.648;2023-12-20T12:17:58;7.4;6.6;5.1;3.0;;;;1.0;54.0;
78462;SPS30;67756;51.982;5.648;2023-12-20T12:20:27;6.1;5.5;4.3;2.6;;;;1.0;80.0;